Time;durP1;ratioP1;P1;durP2;ratioP2;P2;SDS_P1;SDS_P2;PMS_P1;PMS_P2;Temp;Humidity;BMP_temperature;BMP_pressure;BME280_temperature;BME280_humidity;BME280_pressure;Samples;Min_cycle;Max_cycle;Signal;HPM_P1;HPM_P2
2023/10/28 00:00:45;;;;;;;0.73;0.30;;;10.00;99.90;;;;;;5133631;27;20015;-65
2023/10/28 00:03:11;;;;;;;0.77;0.40;;;10.00;99.90;;;;;;5123059;27;20457;-65
2023/10/28 00:05:36;;;;;;;0.90;0.40;;;10.00;99.90;;;;;;5129956;27;20038;-65
2023/10/28 00:08:03;;;;;;;3.03;0.60;;;10.10;99.90;;;;;;5128566;27;20019;-65
2023/10/28 00:10:33;;;;;;;2.85;0.40;;;10.00;99.90;;;;;;5132626;27;20098;-65
2023/10/28 00:12:59;;;;;;;1.98;0.50;;;10.00;99.90;;;;;;5132576;27;20038;-65
2023/10/28 00:15:25;;;;;;;0.98;0.45;;;10.00;99.90;;;;;;5131877;27;20506;-65
2023/10/28 00:17:51;;;;;;;0.80;0.47;;;10.10;99.90;;;;;;5132042;27;20031;-65
2023/10/28 00:20:18;;;;;;;1.35;0.40;;;10.10;99.90;;;;;;5132879;27;20035;-65
2023/10/28 00:22:49;;;;;;;0.82;0.30;;;10.10;99.90;;;;;;5136282;27;20022;-65
2023/10/28 00:25:15;;;;;;;0.65;0.57;;;10.10;99.90;;;;;;5132906;27;20092;-65
2023/10/28 00:27:43;;;;;;;0.95;0.20;;;10.10;99.90;;;;;;5123675;27;20038;-65
2023/10/28 00:30:09;;;;;;;0.47;0.20;;;10.20;99.90;;;;;;5132694;27;20015;-65
2023/10/28 00:32:36;;;;;;;0.40;0.30;;;10.20;99.90;;;;;;5130790;27;20266;-65
2023/10/28 00:35:02;;;;;;;4.40;1.25;;;10.20;99.90;;;;;;5132629;27;20019;-65
2023/10/28 00:37:27;;;;;;;3.13;0.32;;;10.20;99.90;;;;;;5131065;27;20099;-65
2023/10/28 00:39:55;;;;;;;0.63;0.30;;;10.20;99.90;;;;;;5132608;27;20016;-65
2023/10/28 00:42:21;;;;;;;0.30;0.30;;;10.20;99.90;;;;;;5131428;27;20029;-65
2023/10/28 00:44:47;;;;;;;0.20;0.20;;;10.10;99.90;;;;;;5133006;27;20094;-65
2023/10/28 00:47:13;;;;;;;1.05;0.22;;;10.10;99.90;;;;;;5121250;27;20110;-65
2023/10/28 00:49:39;;;;;;;1.55;0.35;;;10.10;99.90;;;;;;5131530;27;20071;-65
2023/10/28 00:52:05;;;;;;;0.50;0.50;;;10.10;99.90;;;;;;5132691;27;20023;-65
2023/10/28 00:54:31;;;;;;;1.02;0.38;;;10.00;99.90;;;;;;5131240;27;20372;-65
2023/10/28 00:56:58;;;;;;;0.80;0.35;;;10.00;99.90;;;;;;5132445;27;20416;-65
2023/10/28 00:59:27;;;;;;;1.08;0.40;;;9.90;99.90;;;;;;5130807;27;20015;-65
2023/10/28 01:01:53;;;;;;;0.52;0.40;;;9.90;99.90;;;;;;5132073;27;20451;-65
2023/10/28 01:04:19;;;;;;;1.00;0.50;;;9.90;99.90;;;;;;5130471;28;20019;-66
2023/10/28 01:06:45;;;;;;;0.52;0.35;;;9.90;99.90;;;;;;5128753;28;20409;-65
2023/10/28 01:09:11;;;;;;;2.60;0.40;;;9.90;99.90;;;;;;5131786;28;20015;-65
2023/10/28 01:11:39;;;;;;;3.50;0.50;;;9.90;99.90;;;;;;5131032;28;20207;-65
2023/10/28 01:14:06;;;;;;;1.45;0.40;;;9.90;99.90;;;;;;5128079;28;20554;-65
2023/10/28 01:16:33;;;;;;;1.65;0.30;;;9.90;99.90;;;;;;5123823;27;20188;-66
2023/10/28 01:19:00;;;;;;;0.98;0.65;;;9.90;99.90;;;;;;5131944;27;20023;-65
2023/10/28 01:21:26;;;;;;;0.60;0.40;;;9.80;99.90;;;;;;5131467;28;20019;-65
2023/10/28 01:23:54;;;;;;;2.95;0.55;;;9.90;99.90;;;;;;5133440;27;20030;-65
2023/10/28 01:26:20;;;;;;;0.73;0.40;;;9.90;99.90;;;;;;5128771;28;20032;-65
2023/10/28 01:28:45;;;;;;;1.45;0.50;;;10.00;99.90;;;;;;5131026;28;20068;-65
2023/10/28 01:31:11;;;;;;;1.77;0.30;;;10.00;99.90;;;;;;5131046;28;20030;-65
2023/10/28 01:33:37;;;;;;;0.75;0.40;;;9.90;99.90;;;;;;5130448;28;20016;-65
2023/10/28 01:36:02;;;;;;;3.60;0.40;;;10.00;99.90;;;;;;5132780;27;20421;-65
2023/10/28 01:38:29;;;;;;;2.25;0.50;;;10.00;99.90;;;;;;5130837;28;20094;-65
2023/10/28 01:40:56;;;;;;;0.40;0.40;;;10.00;99.90;;;;;;5131435;28;20364;-65
2023/10/28 01:43:22;;;;;;;2.10;0.35;;;10.00;99.90;;;;;;5130911;28;20015;-65
2023/10/28 01:45:48;;;;;;;1.40;0.30;;;10.00;99.90;;;;;;5131902;28;20032;-65
2023/10/28 01:48:14;;;;;;;1.95;0.50;;;10.00;99.90;;;;;;5112745;28;20087;-65
2023/10/28 01:50:41;;;;;;;1.85;0.65;;;10.00;99.90;;;;;;5123390;28;20027;-65
2023/10/28 01:53:07;;;;;;;2.95;0.52;;;10.00;99.90;;;;;;5131661;27;20386;-65
2023/10/28 01:55:33;;;;;;;7.72;0.40;;;10.00;99.90;;;;;;5131377;28;20444;-65
2023/10/28 01:57:58;;;;;;;2.83;0.30;;;10.00;99.90;;;;;;5131392;28;20098;-65
2023/10/28 02:00:30;;;;;;;2.13;0.47;;;10.00;99.90;;;;;;5131010;28;20015;-65
2023/10/28 02:03:00;;;;;;;2.30;0.50;;;10.00;99.90;;;;;;5131186;28;20019;-65
2023/10/28 02:05:26;;;;;;;3.03;0.50;;;10.00;99.90;;;;;;5130431;28;20470;-65
2023/10/28 02:07:51;;;;;;;4.13;0.50;;;9.90;99.90;;;;;;5107146;28;20106;-65
2023/10/28 02:10:17;;;;;;;5.82;0.80;;;9.80;99.90;;;;;;5113680;28;20114;-65
2023/10/28 02:12:43;;;;;;;2.92;1.00;;;9.80;99.90;;;;;;5133065;27;20015;-65
2023/10/28 02:15:09;;;;;;;1.95;0.57;;;9.80;99.90;;;;;;5135281;27;20479;-65
2023/10/28 02:17:35;;;;;;;3.63;0.60;;;9.80;99.90;;;;;;5134135;27;20838;-65
2023/10/28 02:20:02;;;;;;;1.98;0.50;;;9.80;99.90;;;;;;5135283;27;20106;-65
2023/10/28 02:22:28;;;;;;;2.13;0.30;;;9.70;99.90;;;;;;5133590;27;20027;-65
2023/10/28 02:24:53;;;;;;;1.73;0.40;;;9.80;99.90;;;;;;5135735;27;20030;-65
2023/10/28 02:27:20;;;;;;;0.93;0.50;;;9.70;99.90;;;;;;5134157;27;20076;-65
2023/10/28 02:29:46;;;;;;;1.52;0.50;;;9.70;99.90;;;;;;5134984;27;20382;-65
2023/10/28 02:32:11;;;;;;;4.93;0.70;;;9.80;99.90;;;;;;5134309;27;20090;-65
2023/10/28 02:34:37;;;;;;;2.90;0.65;;;9.80;99.90;;;;;;5133820;27;20651;-65
2023/10/28 02:37:04;;;;;;;2.72;0.70;;;9.80;99.90;;;;;;5135094;27;20107;-65
2023/10/28 02:39:30;;;;;;;1.70;0.60;;;9.80;99.90;;;;;;5133908;27;20027;-65
2023/10/28 02:41:56;;;;;;;0.88;0.50;;;9.70;99.90;;;;;;5134702;27;20364;-65
2023/10/28 02:44:21;;;;;;;5.03;0.85;;;9.70;99.90;;;;;;5134083;27;20080;-65
2023/10/28 02:46:48;;;;;;;4.38;0.68;;;9.60;99.90;;;;;;5134408;27;20030;-65
2023/10/28 02:49:13;;;;;;;3.88;0.90;;;9.70;99.90;;;;;;5134494;27;20017;-65
2023/10/28 02:51:39;;;;;;;3.83;0.68;;;9.80;99.90;;;;;;5133694;27;20031;-65
2023/10/28 02:54:05;;;;;;;1.88;0.57;;;9.80;99.90;;;;;;5134342;27;20087;-65
2023/10/28 02:56:31;;;;;;;3.20;0.75;;;9.80;99.90;;;;;;5133794;27;20037;-65
2023/10/28 02:58:57;;;;;;;1.85;0.80;;;9.80;99.90;;;;;;5134281;27;20494;-65
2023/10/28 03:01:23;;;;;;;4.68;0.90;;;9.80;99.90;;;;;;5133740;27;20011;-65
2023/10/28 03:03:49;;;;;;;3.25;0.70;;;9.80;99.90;;;;;;5134138;27;20106;-65
2023/10/28 03:06:14;;;;;;;3.53;1.35;;;9.80;99.90;;;;;;5130859;27;20163;-65
2023/10/28 03:08:41;;;;;;;3.25;0.80;;;9.80;99.90;;;;;;5133343;27;20019;-65
2023/10/28 03:11:07;;;;;;;6.72;1.05;;;9.80;99.90;;;;;;5134173;27;20007;-65
2023/10/28 03:13:32;;;;;;;3.13;0.85;;;9.80;99.90;;;;;;5132949;27;20026;-65
2023/10/28 03:15:58;;;;;;;3.50;0.75;;;9.90;99.90;;;;;;5133870;27;20382;-65
2023/10/28 03:18:24;;;;;;;4.03;1.25;;;9.90;99.90;;;;;;5132987;27;20019;-66
2023/10/28 03:20:50;;;;;;;6.68;0.90;;;9.90;99.90;;;;;;5133541;27;20529;-65
2023/10/28 03:23:15;;;;;;;2.03;0.90;;;9.90;99.90;;;;;;5132930;27;20061;-65
2023/10/28 03:25:41;;;;;;;8.38;1.38;;;10.00;99.90;;;;;;5125325;27;20102;-65
2023/10/28 03:28:08;;;;;;;5.22;0.98;;;9.90;99.90;;;;;;5133547;27;20027;-65
2023/10/28 03:30:34;;;;;;;6.60;1.08;;;9.90;99.90;;;;;;5132829;27;20539;-65
2023/10/28 03:33:00;;;;;;;2.78;0.73;;;9.80;99.90;;;;;;5127223;27;20052;-65
2023/10/28 03:35:26;;;;;;;3.33;1.13;;;9.80;99.90;;;;;;5132428;27;20408;-65
2023/10/28 03:37:52;;;;;;;4.22;1.80;;;9.90;99.90;;;;;;5132789;27;20408;-65
2023/10/28 03:40:18;;;;;;;5.22;1.00;;;9.90;99.90;;;;;;5133295;27;20050;-65
2023/10/28 03:42:44;;;;;;;4.80;1.25;;;9.90;99.90;;;;;;5133090;27;20019;-65
2023/10/28 03:45:10;;;;;;;8.10;1.30;;;10.00;99.90;;;;;;5130854;27;20111;-65
2023/10/28 03:47:38;;;;;;;6.60;1.20;;;10.00;99.90;;;;;;5132181;27;20529;-65
2023/10/28 03:50:04;;;;;;;4.88;1.23;;;10.10;99.90;;;;;;5133495;27;20075;-65
2023/10/28 03:52:30;;;;;;;9.18;1.58;;;10.10;99.90;;;;;;5132268;27;20019;-65
2023/10/28 03:54:56;;;;;;;9.02;1.35;;;10.10;99.90;;;;;;5133915;27;20093;-65
2023/10/28 03:57:21;;;;;;;4.38;1.20;;;10.20;99.90;;;;;;5132083;27;20050;-66
2023/10/28 03:59:48;;;;;;;7.97;0.93;;;10.20;99.90;;;;;;5132948;27;20026;-65
2023/10/28 04:02:14;;;;;;;7.65;1.13;;;10.20;99.90;;;;;;5133495;27;20363;-65
2023/10/28 04:04:40;;;;;;;7.72;1.20;;;10.20;99.90;;;;;;5132265;27;20042;-65
2023/10/28 04:07:05;;;;;;;5.93;1.48;;;10.10;99.90;;;;;;5128984;27;20042;-65
2023/10/28 04:09:31;;;;;;;2.92;1.08;;;10.10;99.90;;;;;;5132255;27;20020;-65
2023/10/28 04:12:00;;;;;;;6.32;1.10;;;10.10;99.90;;;;;;5133075;27;20372;-65
2023/10/28 04:14:25;;;;;;;3.33;0.98;;;10.10;99.90;;;;;;5113933;27;20020;-65
2023/10/28 04:16:51;;;;;;;6.65;0.80;;;10.10;99.90;;;;;;5114158;27;20475;-65
2023/10/28 04:19:17;;;;;;;4.72;0.98;;;10.10;99.90;;;;;;5131964;27;20022;-65
2023/10/28 04:21:43;;;;;;;6.60;1.17;;;10.20;99.90;;;;;;5132426;27;20102;-65
2023/10/28 04:24:10;;;;;;;5.28;1.10;;;10.20;99.90;;;;;;5132342;27;20471;-65
2023/10/28 04:26:36;;;;;;;3.70;0.90;;;10.30;99.90;;;;;;5132225;27;20059;-65
2023/10/28 04:29:03;;;;;;;7.68;1.10;;;10.40;99.90;;;;;;5132142;27;20019;-65
2023/10/28 04:31:29;;;;;;;5.30;0.80;;;10.40;99.90;;;;;;5131042;27;21035;-65
2023/10/28 04:33:55;;;;;;;5.47;0.70;;;10.50;99.90;;;;;;5132048;27;20027;-65
2023/10/28 04:36:21;;;;;;;1.75;0.70;;;10.50;99.90;;;;;;5131617;27;20027;-66
2023/10/28 04:38:47;;;;;;;12.98;1.08;;;10.50;99.90;;;;;;5131987;27;20030;-65
2023/10/28 04:41:13;;;;;;;6.95;1.08;;;10.50;99.90;;;;;;5132770;27;20049;-66
2023/10/28 04:43:39;;;;;;;3.03;1.42;;;10.40;99.90;;;;;;5131501;27;20583;-65
2023/10/28 04:46:05;;;;;;;2.35;0.70;;;10.50;99.90;;;;;;5128654;27;20032;-65
2023/10/28 04:48:30;;;;;;;3.78;1.17;;;10.40;99.90;;;;;;5112548;28;20026;-65
2023/10/28 04:50:56;;;;;;;6.72;0.90;;;10.40;99.90;;;;;;5127461;27;20076;-66
2023/10/28 04:53:24;;;;;;;3.40;0.90;;;10.30;99.90;;;;;;5131190;27;20021;-66
2023/10/28 04:55:50;;;;;;;3.13;0.50;;;10.30;99.90;;;;;;5114522;27;20035;-66
2023/10/28 04:58:16;;;;;;;5.35;0.80;;;10.30;99.90;;;;;;5131581;27;20072;-66
2023/10/28 05:00:42;;;;;;;2.90;0.70;;;10.20;99.90;;;;;;5132145;27;20015;-66
2023/10/28 05:03:08;;;;;;;3.38;0.85;;;10.20;99.90;;;;;;5131653;27;20072;-66
2023/10/28 05:05:34;;;;;;;3.97;1.00;;;10.20;99.90;;;;;;5128157;28;20098;-66
2023/10/28 05:07:59;;;;;;;4.35;0.98;;;10.20;99.90;;;;;;5131769;28;20110;-66
2023/10/28 05:10:25;;;;;;;3.53;0.85;;;10.10;99.90;;;;;;5131435;28;20480;-66
2023/10/28 05:12:51;;;;;;;4.85;0.70;;;10.00;99.90;;;;;;5131893;28;20023;-66
2023/10/28 05:15:16;;;;;;;2.97;0.88;;;10.00;99.90;;;;;;5131690;28;20043;-66
2023/10/28 05:17:43;;;;;;;3.67;0.75;;;10.00;99.90;;;;;;5131880;27;20034;-66
2023/10/28 05:20:09;;;;;;;4.10;0.70;;;10.00;99.90;;;;;;5132294;28;20024;-65
2023/10/28 05:22:39;;;;;;;4.35;0.82;;;9.90;99.90;;;;;;5130832;28;20163;-66
2023/10/28 05:25:07;;;;;;;3.20;0.73;;;9.90;99.90;;;;;;5121955;28;20019;-66
2023/10/28 05:27:35;;;;;;;8.63;1.10;;;9.80;99.90;;;;;;5123875;28;20035;-66
2023/10/28 05:30:02;;;;;;;6.63;1.23;;;9.80;99.90;;;;;;5120759;27;20030;-65
2023/10/28 05:32:29;;;;;;;3.95;0.93;;;9.70;99.90;;;;;;5118368;28;20111;-66
2023/10/28 05:34:56;;;;;;;2.58;0.60;;;9.70;99.90;;;;;;5123612;27;20482;-66
2023/10/28 05:37:22;;;;;;;4.88;0.77;;;9.70;99.90;;;;;;5116689;28;20043;-67
2023/10/28 05:39:47;;;;;;;3.00;0.60;;;9.60;99.90;;;;;;5121440;27;20047;-66
2023/10/28 05:42:16;;;;;;;4.15;1.30;;;9.60;99.90;;;;;;5125855;28;20066;-65
2023/10/28 05:44:42;;;;;;;4.35;0.95;;;9.60;99.90;;;;;;5121421;28;20027;-66
2023/10/28 05:47:08;;;;;;;3.67;1.05;;;9.70;99.90;;;;;;5127870;27;20080;-66
2023/10/28 05:49:34;;;;;;;1.55;0.73;;;9.70;99.90;;;;;;5124217;27;20023;-66
2023/10/28 05:52:00;;;;;;;4.82;0.93;;;9.60;99.90;;;;;;5127313;27;20015;-66
2023/10/28 05:54:26;;;;;;;5.13;1.08;;;9.70;99.90;;;;;;5130148;27;20084;-66
2023/10/28 05:56:51;;;;;;;5.55;0.90;;;9.60;99.90;;;;;;5135037;27;20019;-66
2023/10/28 05:59:17;;;;;;;5.40;1.52;;;9.70;99.90;;;;;;5129236;27;20453;-66
2023/10/28 06:01:43;;;;;;;7.40;1.30;;;9.70;99.90;;;;;;5134179;27;20015;-66
2023/10/28 06:04:09;;;;;;;4.65;1.02;;;9.70;99.90;;;;;;5126361;27;20474;-66
2023/10/28 06:06:35;;;;;;;3.38;0.90;;;9.80;99.90;;;;;;5133127;27;20028;-66
2023/10/28 06:09:01;;;;;;;6.35;1.10;;;9.80;99.90;;;;;;5125623;27;20503;-67
2023/10/28 06:11:26;;;;;;;6.00;1.20;;;9.80;99.90;;;;;;5133241;27;20027;-66
2023/10/28 06:13:53;;;;;;;2.67;0.90;;;9.90;99.90;;;;;;5129274;27;20444;-66
2023/10/28 06:16:19;;;;;;;4.13;0.95;;;9.90;99.90;;;;;;5123168;27;20046;-66
2023/10/28 06:18:45;;;;;;;5.30;1.10;;;10.00;99.90;;;;;;5127031;27;20027;-66
2023/10/28 06:21:16;;;;;;;6.80;0.95;;;10.00;99.90;;;;;;5122920;27;20385;-66
2023/10/28 06:23:42;;;;;;;5.97;1.25;;;10.10;99.90;;;;;;5127130;27;20040;-66
2023/10/28 06:26:08;;;;;;;5.70;0.90;;;10.10;99.90;;;;;;5129660;27;20039;-66
2023/10/28 06:28:34;;;;;;;9.10;1.10;;;10.10;99.90;;;;;;5124658;27;20019;-65
2023/10/28 06:31:00;;;;;;;5.68;0.95;;;10.10;99.90;;;;;;5121848;27;20098;-66
2023/10/28 06:33:26;;;;;;;4.60;1.42;;;10.10;99.90;;;;;;5128921;27;20173;-66
2023/10/28 06:35:52;;;;;;;5.22;1.00;;;10.20;99.90;;;;;;5132993;27;20752;-65
2023/10/28 06:38:17;;;;;;;6.13;1.17;;;10.20;99.90;;;;;;5132770;27;20031;-65
2023/10/28 06:40:43;;;;;;;4.80;1.20;;;10.20;99.90;;;;;;5123335;27;20038;-65
2023/10/28 06:43:09;;;;;;;9.13;1.65;;;10.30;99.90;;;;;;5127385;27;20024;-66
2023/10/28 06:45:36;;;;;;;4.50;1.25;;;10.30;99.90;;;;;;5123398;27;20043;-66
2023/10/28 06:48:03;;;;;;;6.30;0.98;;;10.50;99.90;;;;;;5129658;27;20413;-66
2023/10/28 06:50:29;;;;;;;2.40;1.15;;;10.50;99.90;;;;;;5124786;27;20035;-64
2023/10/28 06:52:55;;;;;;;4.95;1.25;;;10.50;99.90;;;;;;5132795;27;20016;-65
2023/10/28 06:55:22;;;;;;;2.40;0.85;;;10.50;99.90;;;;;;5119465;27;20401;-66
2023/10/28 06:57:47;;;;;;;8.90;1.40;;;10.40;99.90;;;;;;5133050;27;20101;-65
2023/10/28 07:00:13;;;;;;;4.43;1.08;;;10.40;99.90;;;;;;5127941;27;20405;-66
2023/10/28 07:02:42;;;;;;;4.85;1.40;;;10.40;99.90;;;;;;5131980;27;20031;-66
2023/10/28 07:05:09;;;;;;;3.83;1.00;;;10.30;99.90;;;;;;5129572;27;20023;-67
2023/10/28 07:07:38;;;;;;;6.18;0.85;;;10.30;99.90;;;;;;5131325;27;20572;-65
2023/10/28 07:10:04;;;;;;;5.38;1.25;;;10.30;99.90;;;;;;5130540;27;20026;-64
2023/10/28 07:12:31;;;;;;;4.47;0.95;;;10.20;99.90;;;;;;5118850;27;20042;-65
2023/10/28 07:14:56;;;;;;;3.55;1.10;;;10.30;99.90;;;;;;5126519;27;20094;-64
2023/10/28 07:17:22;;;;;;;4.90;1.08;;;10.40;99.90;;;;;;5132599;27;20106;-66
2023/10/28 07:19:49;;;;;;;3.05;0.85;;;10.50;99.90;;;;;;5134125;27;20016;-64
2023/10/28 07:22:25;;;;;;;6.93;1.23;;;10.60;99.90;;;;;;5133799;27;20363;-67
2023/10/28 07:24:53;;;;;;;6.22;1.38;;;10.70;99.90;;;;;;5122108;27;20410;-65
2023/10/28 07:27:18;;;;;;;2.30;1.00;;;10.90;99.90;;;;;;5119421;27;20027;-66
2023/10/28 07:29:44;;;;;;;4.15;1.10;;;11.00;99.90;;;;;;5133457;27;20467;-67
2023/10/28 07:32:10;;;;;;;2.30;0.85;;;11.20;99.90;;;;;;5132893;27;20026;-65
2023/10/28 07:34:35;;;;;;;2.13;0.80;;;11.40;99.90;;;;;;5132476;27;20034;-65
2023/10/28 07:37:04;;;;;;;2.80;0.80;;;11.60;99.90;;;;;;5133362;27;20022;-65
2023/10/28 07:39:31;;;;;;;3.72;1.02;;;11.60;99.90;;;;;;5132539;27;20031;-65
2023/10/28 07:41:57;;;;;;;4.18;1.00;;;11.70;99.90;;;;;;5130833;27;20382;-66
2023/10/28 07:44:22;;;;;;;13.02;1.38;;;11.70;99.90;;;;;;5125784;27;20023;-65
2023/10/28 07:46:48;;;;;;;3.35;0.93;;;11.70;99.90;;;;;;5132937;27;20068;-65
2023/10/28 07:49:14;;;;;;;10.68;1.63;;;11.60;99.90;;;;;;5127634;27;20103;-63
2023/10/28 07:51:40;;;;;;;2.45;0.90;;;11.60;99.90;;;;;;5132372;27;20019;-64
2023/10/28 07:54:06;;;;;;;7.38;1.20;;;11.60;99.90;;;;;;5133055;27;20060;-65
2023/10/28 07:56:32;;;;;;;2.90;1.20;;;11.70;99.90;;;;;;5132320;27;20527;-64
2023/10/28 07:59:02;;;;;;;7.20;1.35;;;11.60;99.90;;;;;;5132796;27;20086;-64
2023/10/28 08:01:29;;;;;;;6.18;1.10;;;11.70;99.90;;;;;;5132265;27;20023;-64
2023/10/28 08:03:58;;;;;;;5.20;1.58;;;11.70;99.90;;;;;;5132427;27;20411;-64
2023/10/28 08:06:24;;;;;;;4.55;1.30;;;11.70;99.90;;;;;;5132724;27;20091;-64
2023/10/28 08:08:53;;;;;;;6.78;1.58;;;11.70;99.90;;;;;;5132437;27;20015;-64
2023/10/28 08:11:20;;;;;;;3.47;1.00;;;11.70;99.90;;;;;;5132403;27;20011;-64
2023/10/28 08:13:47;;;;;;;3.53;1.15;;;11.70;99.90;;;;;;5128093;27;20117;-64
2023/10/28 08:16:16;;;;;;;3.17;1.35;;;11.70;99.90;;;;;;5132518;27;20101;-64
2023/10/28 08:18:41;;;;;;;7.20;1.00;;;11.90;99.90;;;;;;5131686;27;20023;-64
2023/10/28 08:21:09;;;;;;;7.10;1.13;;;12.00;99.90;;;;;;5121467;27;20068;-64
2023/10/28 08:23:37;;;;;;;5.28;0.93;;;12.20;99.90;;;;;;5125316;27;20818;-64
2023/10/28 08:26:05;;;;;;;2.90;1.02;;;12.30;99.90;;;;;;5132855;27;20539;-64
2023/10/28 08:28:31;;;;;;;2.40;0.88;;;12.40;99.90;;;;;;5124217;27;20042;-64
2023/10/28 08:30:56;;;;;;;9.55;1.35;;;12.50;99.90;;;;;;5131780;27;20027;-64
2023/10/28 08:33:22;;;;;;;4.20;1.77;;;12.70;99.90;;;;;;5130999;27;20081;-64
2023/10/28 08:35:48;;;;;;;4.55;1.10;;;12.90;99.90;;;;;;5132323;27;20027;-64
2023/10/28 08:38:17;;;;;;;7.15;1.40;;;13.10;99.90;;;;;;5132115;27;20039;-64
2023/10/28 08:40:46;;;;;;;6.40;1.38;;;13.30;99.90;;;;;;5132557;27;20015;-64
2023/10/28 08:43:14;;;;;;;4.50;1.10;;;13.50;99.90;;;;;;5131468;27;20364;-64
2023/10/28 08:45:45;;;;;;;7.22;1.30;;;13.70;99.90;;;;;;5131648;27;20084;-64
2023/10/28 08:48:12;;;;;;;6.45;0.82;;;13.80;99.90;;;;;;5120979;27;20460;-64
2023/10/28 08:50:39;;;;;;;3.65;1.40;;;13.90;99.90;;;;;;5128741;27;20475;-64
2023/10/28 08:53:08;;;;;;;3.38;1.02;;;13.90;99.90;;;;;;5130060;27;20468;-64
2023/10/28 08:55:38;;;;;;;7.80;0.88;;;14.00;99.90;;;;;;5125137;27;20030;-64
2023/10/28 08:58:07;;;;;;;5.43;1.00;;;13.90;99.90;;;;;;5113309;28;20019;-65
2023/10/28 09:00:36;;;;;;;4.88;1.10;;;13.90;99.90;;;;;;5118469;27;20027;-65
2023/10/28 09:03:04;;;;;;;5.72;0.90;;;13.90;99.90;;;;;;5131786;27;20102;-65
2023/10/28 09:05:30;;;;;;;3.75;0.95;;;13.80;99.90;;;;;;5131538;27;20023;-65
2023/10/28 09:07:56;;;;;;;5.80;1.20;;;13.80;99.90;;;;;;5131668;28;20119;-65
2023/10/28 09:10:22;;;;;;;4.40;1.23;;;13.80;99.90;;;;;;5131594;28;20375;-65
2023/10/28 09:12:52;;;;;;;6.30;0.88;;;13.80;99.90;;;;;;5131869;28;20019;-65
2023/10/28 09:15:18;;;;;;;5.38;1.10;;;13.90;99.90;;;;;;5131360;27;20104;-63
2023/10/28 09:17:44;;;;;;;5.47;0.80;;;;;;;;;;5131645;28;20027;-65
2023/10/28 09:20:11;;;;;;;4.10;1.13;;;;;;;;;;5131899;28;20027;-65
2023/10/28 09:22:39;;;;;;;5.30;0.75;;;;;;;;;;5121147;27;20608;-63
2023/10/28 09:25:05;;;;;;;5.22;1.00;;;;;;;;;;5132305;27;20011;-62
2023/10/28 09:27:32;;;;;;;5.50;1.65;;;;;;;;;;5134964;27;20051;-63
2023/10/28 09:30:07;;;;;;;5.75;1.42;;;;;;;;;;5136035;27;20102;-63
2023/10/28 09:32:34;;;;;;;4.82;0.90;;;;;;;;;;5134334;27;20027;-64
2023/10/28 09:35:07;;;;;;;4.60;1.58;;;;;;;;;;5136197;27;20401;-64
2023/10/28 09:37:34;;;;;;;4.45;1.20;;;;;;;;;;5124724;27;20111;-64
2023/10/28 09:40:02;;;;;;;3.40;1.20;;;;;;;;;;5127899;27;20015;-64
2023/10/28 09:42:31;;;;;;;5.05;1.40;;;;;;;;;;5134414;27;20025;-63
2023/10/28 09:44:58;;;;;;;3.53;0.90;;;;;;;;;;5135690;27;20007;-63
2023/10/28 09:47:29;;;;;;;4.28;0.82;;;;;;;;;;5123962;27;20020;-63
2023/10/28 09:50:00;;;;;;;3.25;1.23;;;;;;;;;;5135988;27;20011;-63
2023/10/28 09:52:29;;;;;;;3.63;1.00;;;;;;;;;;5134555;27;20049;-64
2023/10/28 09:54:59;;;;;;;3.22;0.93;;;;;;;;;;5136127;27;20064;-64
2023/10/28 09:57:25;;;;;;;3.27;1.10;;;;;;;;;;5126967;27;20030;-64
2023/10/28 09:59:52;;;;;;;3.55;0.98;;;;;;;;;;5110043;27;20023;-65
2023/10/28 10:02:51;;;;;;;4.60;1.30;;;15.20;99.90;;;;;;5135100;27;20023;-65
2023/10/28 10:05:24;;;;;;;8.35;1.20;;;15.30;99.90;;;;;;5128558;27;20161;-65
2023/10/28 10:07:49;;;;;;;3.38;0.65;;;15.40;99.90;;;;;;5134769;27;20371;-64
2023/10/28 10:10:16;;;;;;;3.15;1.25;;;15.60;99.90;;;;;;5135476;27;20027;-64
2023/10/28 10:12:42;;;;;;;4.88;1.30;;;15.60;99.90;;;;;;5121786;27;20020;-64
2023/10/28 10:15:10;;;;;;;3.90;1.08;;;15.50;99.90;;;;;;5130792;27;20352;-64
2023/10/28 10:17:54;;;;;;;4.68;1.65;;;15.60;99.90;;;;;;5122875;28;20129;-64
2023/10/28 10:20:26;;;;;;;6.35;1.30;;;15.70;99.90;;;;;;5126564;28;20068;-64
2023/10/28 10:23:01;;;;;;;5.88;1.25;;;15.70;99.90;;;;;;5124681;27;20403;-64
2023/10/28 10:25:31;;;;;;;4.15;1.10;;;15.80;99.90;;;;;;5133310;28;20027;-63
2023/10/28 10:28:12;;;;;;;4.72;1.50;;;15.80;99.90;;;;;;5126500;28;20058;-63
2023/10/28 10:30:38;;;;;;;4.40;1.27;;;15.80;99.90;;;;;;5130286;28;20682;-64
2023/10/28 10:33:03;;;;;;;5.50;1.70;;;15.80;99.90;;;;;;5133100;27;20023;-64
2023/10/28 10:35:34;;;;;;;10.43;3.83;;;15.90;99.90;;;;;;5133231;28;20023;-64
2023/10/28 10:38:04;;;;;;;3.50;1.33;;;16.10;99.90;;;;;;5133251;28;20471;-64
2023/10/28 10:40:32;;;;;;;7.30;1.70;;;16.30;99.90;;;;;;5131929;27;20129;-64
2023/10/28 10:43:08;;;;;;;5.28;1.10;;;16.40;99.90;;;;;;5129552;28;20039;-64
2023/10/28 10:45:34;;;;;;;7.45;1.35;;;16.30;99.90;;;;;;5132941;28;20052;-64
2023/10/28 10:48:01;;;;;;;5.43;1.17;;;16.40;99.90;;;;;;5132951;28;20057;-64
2023/10/28 10:50:27;;;;;;;8.20;1.83;;;16.40;99.90;;;;;;5132762;28;20019;-64
2023/10/28 10:52:54;;;;;;;4.90;1.38;;;16.60;99.90;;;;;;5133148;28;20042;-64
2023/10/28 10:55:24;;;;;;;5.95;2.10;;;16.70;99.90;;;;;;5132918;28;20405;-64
2023/10/28 10:57:51;;;;;;;6.13;1.65;;;16.90;99.90;;;;;;5133305;27;20525;-64
2023/10/28 11:00:17;;;;;;;8.57;1.75;;;17.00;99.90;;;;;;5128510;28;20344;-64
2023/10/28 11:02:43;;;;;;;5.47;1.80;;;17.20;99.90;;;;;;5132055;28;20019;-64
2023/10/28 11:05:09;;;;;;;4.72;1.33;;;17.20;99.90;;;;;;5126532;28;20493;-64
2023/10/28 11:07:35;;;;;;;7.72;1.55;;;17.10;99.90;;;;;;5130518;28;20096;-63
2023/10/28 11:10:04;;;;;;;2.97;1.05;;;17.00;99.90;;;;;;5131230;28;20019;-63
2023/10/28 11:12:30;;;;;;;6.63;1.60;;;16.80;99.90;;;;;;5131773;28;20023;-63
2023/10/28 11:14:56;;;;;;;7.85;1.58;;;16.70;99.90;;;;;;5090911;27;1101524;-62
2023/10/28 11:17:23;;;;;;;5.68;1.52;;;16.30;99.90;;;;;;5132705;27;20482;-64
2023/10/28 11:19:49;;;;;;;4.50;1.13;;;16.10;99.90;;;;;;5080826;27;20115;-63
2023/10/28 11:22:20;;;;;;;7.85;1.58;;;15.90;99.90;;;;;;5120045;27;20042;-63
2023/10/28 11:24:55;;;;;;;3.67;1.33;;;15.70;99.90;;;;;;5127641;27;20031;-65
2023/10/28 11:27:22;;;;;;;5.55;2.08;;;15.70;99.90;;;;;;5118401;27;20035;-67
2023/10/28 11:29:49;;;;;;;5.32;1.95;;;15.60;99.90;;;;;;5133846;27;20050;-66
2023/10/28 11:32:15;;;;;;;5.88;1.30;;;15.50;99.90;;;;;;5133622;27;20451;-65
2023/10/28 11:34:41;;;;;;;3.15;1.55;;;15.50;99.90;;;;;;5114412;27;20015;-64
2023/10/28 11:37:10;;;;;;;5.15;2.03;;;15.40;99.90;;;;;;5128314;27;20370;-64
2023/10/28 11:39:40;;;;;;;7.15;1.80;;;15.40;99.90;;;;;;5132193;27;20088;-68
2023/10/28 11:42:12;;;;;;;10.10;4.00;;;15.40;99.90;;;;;;5126359;27;20039;-64
2023/10/28 11:44:46;;;;;;;6.03;1.98;;;15.40;99.90;;;;;;5130308;27;20343;-67
2023/10/28 11:47:11;;;;;;;7.05;2.20;;;15.40;99.90;;;;;;5129560;27;20027;-64
2023/10/28 11:49:37;;;;;;;5.43;1.63;;;15.40;99.90;;;;;;5132219;27;20080;-64
2023/10/28 11:52:04;;;;;;;6.97;1.83;;;15.40;99.90;;;;;;5118657;27;20024;-64
2023/10/28 11:54:29;;;;;;;6.88;1.88;;;15.40;99.90;;;;;;5123226;27;20103;-64
2023/10/28 11:56:55;;;;;;;5.50;1.70;;;15.50;99.90;;;;;;5128235;27;20020;-65
2023/10/28 11:59:20;;;;;;;6.53;1.60;;;15.50;99.90;;;;;;5119801;27;20416;-65
2023/10/28 12:01:46;;;;;;;6.53;2.22;;;15.50;99.90;;;;;;5132689;27;20027;-64
2023/10/28 12:04:12;;;;;;;5.95;1.40;;;15.50;99.90;;;;;;5128523;27;20046;-64
2023/10/28 12:06:37;;;;;;;5.65;1.63;;;15.50;99.90;;;;;;5132826;27;20047;-64
2023/10/28 12:09:04;;;;;;;4.88;1.50;;;15.40;99.90;;;;;;5132723;27;20364;-64
2023/10/28 12:11:31;;;;;;;8.23;1.48;;;15.40;99.90;;;;;;5131961;27;20459;-64
2023/10/28 12:13:57;;;;;;;6.00;1.67;;;15.40;99.90;;;;;;5133328;27;20016;-64
2023/10/28 12:16:25;;;;;;;8.05;2.33;;;15.30;99.90;;;;;;5132224;27;20149;-65
2023/10/28 12:18:51;;;;;;;6.97;1.75;;;15.20;99.90;;;;;;5129381;27;20106;-65
2023/10/28 12:21:18;;;;;;;5.15;1.45;;;15.00;99.90;;;;;;5133178;27;20160;-65
2023/10/28 12:23:44;;;;;;;6.10;1.70;;;14.90;99.90;;;;;;5132108;27;20022;-66
2023/10/28 12:26:13;;;;;;;8.98;1.88;;;14.80;99.90;;;;;;5129173;27;20029;-67
2023/10/28 12:28:39;;;;;;;8.82;2.10;;;14.80;99.90;;;;;;5130864;27;20091;-67
2023/10/28 12:31:04;;;;;;;5.18;1.50;;;14.90;99.90;;;;;;5130294;27;20032;-67
2023/10/28 12:33:31;;;;;;;6.10;1.60;;;15.20;99.90;;;;;;5130197;27;20027;-68
2023/10/28 12:35:57;;;;;;;3.55;1.70;;;15.40;99.90;;;;;;5133416;27;20122;-67
2023/10/28 12:38:23;;;;;;;6.05;1.40;;;15.50;99.90;;;;;;5127990;27;20026;-67
2023/10/28 12:40:49;;;;;;;8.52;1.50;;;15.60;99.90;;;;;;5132790;27;20470;-68
2023/10/28 12:43:14;;;;;;;5.82;1.60;;;15.70;99.90;;;;;;5129095;27;20027;-68
2023/10/28 12:45:40;;;;;;;4.88;1.45;;;15.80;99.90;;;;;;5131886;27;20410;-68
2023/10/28 12:48:06;;;;;;;4.30;1.70;;;15.90;99.90;;;;;;5127406;27;20098;-67
2023/10/28 12:50:31;;;;;;;5.35;1.48;;;15.90;99.90;;;;;;5117571;27;20038;-71
2023/10/28 12:52:58;;;;;;;7.60;1.60;;;15.90;99.90;;;;;;5130368;27;20075;-68